sensor_id;sensor_type;location;lat;lon;timestamp;P1;durP1;ratioP1;P2;durP2;ratioP2
60999;SDS011;46879;45.658;11.814;2023-04-09T00:03:56;5.53;;;3.30;;
60999;SDS011;46879;45.658;11.814;2023-04-09T00:08:57;5.60;;;2.90;;
60999;SDS011;46879;45.658;11.814;2023-04-09T00:13:57;5.60;;;3.15;;
60999;SDS011;46879;45.658;11.814;2023-04-09T00:18:58;4.43;;;2.65;;
60999;SDS011;46879;45.658;11.814;2023-04-09T00:23:59;6.18;;;2.83;;
60999;SDS011;46879;45.658;11.814;2023-04-09T00:29:00;5.28;;;2.85;;
60999;SDS011;46879;45.658;11.814;2023-04-09T00:34:01;3.88;;;2.85;;
60999;SDS011;46879;45.658;11.814;2023-04-09T00:39:01;4.65;;;2.92;;
60999;SDS011;46879;45.658;11.814;2023-04-09T00:44:02;9.52;;;2.72;;
60999;SDS011;46879;45.658;11.814;2023-04-09T00:49:02;5.32;;;2.60;;
60999;SDS011;46879;45.658;11.814;2023-04-09T00:54:03;4.82;;;2.85;;
60999;SDS011;46879;45.658;11.814;2023-04-09T00:59:03;6.47;;;2.78;;
60999;SDS011;46879;45.658;11.814;2023-04-09T01:04:04;4.82;;;2.28;;
60999;SDS011;46879;45.658;11.814;2023-04-09T01:09:06;4.60;;;2.60;;
60999;SDS011;46879;45.658;11.814;2023-04-09T01:19:57;2.97;;;2.50;;
60999;SDS011;46879;45.658;11.814;2023-04-09T01:30:29;3.65;;;2.65;;
60999;SDS011;46879;45.658;11.814;2023-04-09T01:35:30;3.83;;;2.45;;
60999;SDS011;46879;45.658;11.814;2023-04-09T01:40:31;5.88;;;2.30;;
60999;SDS011;46879;45.658;11.814;2023-04-09T01:45:32;2.92;;;2.35;;
60999;SDS011;46879;45.658;11.814;2023-04-09T01:50:33;4.20;;;2.70;;
60999;SDS011;46879;45.658;11.814;2023-04-09T01:55:34;4.40;;;2.58;;
60999;SDS011;46879;45.658;11.814;2023-04-09T02:00:37;4.70;;;2.38;;
60999;SDS011;46879;45.658;11.814;2023-04-09T02:05:43;3.85;;;2.40;;
60999;SDS011;46879;45.658;11.814;2023-04-09T02:10:53;4.18;;;2.58;;
60999;SDS011;46879;45.658;11.814;2023-04-09T02:15:58;4.90;;;2.60;;
60999;SDS011;46879;45.658;11.814;2023-04-09T02:21:00;3.58;;;2.20;;
60999;SDS011;46879;45.658;11.814;2023-04-09T02:26:00;4.15;;;2.60;;
60999;SDS011;46879;45.658;11.814;2023-04-09T02:31:01;5.82;;;2.58;;
60999;SDS011;46879;45.658;11.814;2023-04-09T02:36:02;3.47;;;2.40;;
60999;SDS011;46879;45.658;11.814;2023-04-09T02:41:04;6.32;;;2.17;;
60999;SDS011;46879;45.658;11.814;2023-04-09T02:46:05;3.00;;;2.20;;
60999;SDS011;46879;45.658;11.814;2023-04-09T02:51:06;3.67;;;2.42;;
60999;SDS011;46879;45.658;11.814;2023-04-09T02:56:07;3.88;;;2.53;;
60999;SDS011;46879;45.658;11.814;2023-04-09T03:01:07;2.78;;;2.08;;
60999;SDS011;46879;45.658;11.814;2023-04-09T03:06:08;3.03;;;2.22;;
60999;SDS011;46879;45.658;11.814;2023-04-09T03:11:08;3.67;;;2.33;;
60999;SDS011;46879;45.658;11.814;2023-04-09T03:16:09;2.53;;;2.10;;
60999;SDS011;46879;45.658;11.814;2023-04-09T03:21:10;3.33;;;2.40;;
60999;SDS011;46879;45.658;11.814;2023-04-09T03:26:10;3.65;;;2.25;;
60999;SDS011;46879;45.658;11.814;2023-04-09T03:31:11;2.15;;;1.75;;
60999;SDS011;46879;45.658;11.814;2023-04-09T03:36:12;3.55;;;2.33;;
60999;SDS011;46879;45.658;11.814;2023-04-09T03:41:13;3.20;;;2.00;;
60999;SDS011;46879;45.658;11.814;2023-04-09T03:46:14;2.80;;;2.50;;
60999;SDS011;46879;45.658;11.814;2023-04-09T03:51:16;5.68;;;2.00;;
60999;SDS011;46879;45.658;11.814;2023-04-09T03:56:17;2.90;;;2.00;;
60999;SDS011;46879;45.658;11.814;2023-04-09T04:01:17;2.63;;;2.00;;
60999;SDS011;46879;45.658;11.814;2023-04-09T04:06:18;3.15;;;1.98;;
60999;SDS011;46879;45.658;11.814;2023-04-09T04:11:19;2.13;;;1.92;;
60999;SDS011;46879;45.658;11.814;2023-04-09T04:16:19;6.78;;;2.25;;
60999;SDS011;46879;45.658;11.814;2023-04-09T04:21:20;2.38;;;1.85;;
60999;SDS011;46879;45.658;11.814;2023-04-09T04:26:21;2.83;;;1.80;;
60999;SDS011;46879;45.658;11.814;2023-04-09T04:31:21;2.25;;;1.98;;
60999;SDS011;46879;45.658;11.814;2023-04-09T04:36:22;2.20;;;1.80;;
60999;SDS011;46879;45.658;11.814;2023-04-09T04:41:22;1.98;;;1.65;;
60999;SDS011;46879;45.658;11.814;2023-04-09T04:46:23;4.25;;;2.00;;
60999;SDS011;46879;45.658;11.814;2023-04-09T04:51:24;4.95;;;1.90;;
60999;SDS011;46879;45.658;11.814;2023-04-09T04:56:26;12.50;;;2.00;;
60999;SDS011;46879;45.658;11.814;2023-04-09T05:01:27;13.70;;;2.15;;
60999;SDS011;46879;45.658;11.814;2023-04-09T05:06:27;6.60;;;2.00;;
60999;SDS011;46879;45.658;11.814;2023-04-09T05:11:28;3.47;;;2.20;;
60999;SDS011;46879;45.658;11.814;2023-04-09T05:16:29;8.45;;;1.90;;
60999;SDS011;46879;45.658;11.814;2023-04-09T05:21:30;3.38;;;1.80;;
60999;SDS011;46879;45.658;11.814;2023-04-09T05:26:31;2.55;;;2.10;;
60999;SDS011;46879;45.658;11.814;2023-04-09T05:31:31;11.90;;;2.05;;
60999;SDS011;46879;45.658;11.814;2023-04-09T05:36:33;13.02;;;2.08;;
60999;SDS011;46879;45.658;11.814;2023-04-09T05:41:34;11.73;;;2.30;;
60999;SDS011;46879;45.658;11.814;2023-04-09T05:46:36;3.00;;;2.10;;
60999;SDS011;46879;45.658;11.814;2023-04-09T05:51:37;7.43;;;1.92;;
60999;SDS011;46879;45.658;11.814;2023-04-09T05:56:37;1.92;;;1.50;;
60999;SDS011;46879;45.658;11.814;2023-04-09T06:01:38;7.50;;;1.98;;
60999;SDS011;46879;45.658;11.814;2023-04-09T06:06:38;2.53;;;1.63;;
60999;SDS011;46879;45.658;11.814;2023-04-09T06:11:39;6.55;;;1.92;;
60999;SDS011;46879;45.658;11.814;2023-04-09T06:16:40;5.05;;;1.95;;
60999;SDS011;46879;45.658;11.814;2023-04-09T06:21:40;4.10;;;2.00;;
60999;SDS011;46879;45.658;11.814;2023-04-09T06:26:42;11.43;;;3.08;;
60999;SDS011;46879;45.658;11.814;2023-04-09T06:31:43;2.33;;;2.10;;
60999;SDS011;46879;45.658;11.814;2023-04-09T06:36:43;7.88;;;2.08;;
60999;SDS011;46879;45.658;11.814;2023-04-09T06:41:44;4.03;;;1.92;;
60999;SDS011;46879;45.658;11.814;2023-04-09T06:46:45;1.83;;;1.60;;
60999;SDS011;46879;45.658;11.814;2023-04-09T06:51:46;4.22;;;2.05;;
60999;SDS011;46879;45.658;11.814;2023-04-09T06:56:47;11.15;;;2.30;;
60999;SDS011;46879;45.658;11.814;2023-04-09T07:01:47;3.72;;;1.75;;
60999;SDS011;46879;45.658;11.814;2023-04-09T07:06:48;5.57;;;1.70;;
60999;SDS011;46879;45.658;11.814;2023-04-09T07:11:48;3.50;;;1.98;;
60999;SDS011;46879;45.658;11.814;2023-04-09T07:16:49;6.13;;;1.92;;
60999;SDS011;46879;45.658;11.814;2023-04-09T07:21:50;3.88;;;1.80;;
60999;SDS011;46879;45.658;11.814;2023-04-09T07:26:50;4.25;;;1.50;;
60999;SDS011;46879;45.658;11.814;2023-04-09T07:31:52;1.52;;;1.42;;
60999;SDS011;46879;45.658;11.814;2023-04-09T07:36:53;2.42;;;1.40;;
60999;SDS011;46879;45.658;11.814;2023-04-09T07:41:55;2.72;;;1.67;;
60999;SDS011;46879;45.658;11.814;2023-04-09T07:46:56;1.75;;;1.40;;
60999;SDS011;46879;45.658;11.814;2023-04-09T07:51:57;1.50;;;1.40;;
60999;SDS011;46879;45.658;11.814;2023-04-09T07:56:59;2.20;;;1.60;;
60999;SDS011;46879;45.658;11.814;2023-04-09T08:02:03;2.10;;;1.58;;
60999;SDS011;46879;45.658;11.814;2023-04-09T08:07:03;2.47;;;1.45;;
60999;SDS011;46879;45.658;11.814;2023-04-09T08:12:04;1.65;;;1.40;;
60999;SDS011;46879;45.658;11.814;2023-04-09T08:17:05;2.83;;;1.65;;
60999;SDS011;46879;45.658;11.814;2023-04-09T08:22:05;3.80;;;1.90;;
60999;SDS011;46879;45.658;11.814;2023-04-09T08:27:06;3.33;;;1.60;;
60999;SDS011;46879;45.658;11.814;2023-04-09T08:32:07;1.40;;;1.30;;
60999;SDS011;46879;45.658;11.814;2023-04-09T08:37:07;2.28;;;1.40;;
60999;SDS011;46879;45.658;11.814;2023-04-09T08:42:08;2.00;;;1.40;;
60999;SDS011;46879;45.658;11.814;2023-04-09T08:47:11;2.80;;;1.48;;
60999;SDS011;46879;45.658;11.814;2023-04-09T08:52:12;2.10;;;1.63;;
60999;SDS011;46879;45.658;11.814;2023-04-09T08:57:15;3.17;;;1.35;;
60999;SDS011;46879;45.658;11.814;2023-04-09T09:02:16;3.83;;;1.48;;
60999;SDS011;46879;45.658;11.814;2023-04-09T09:07:17;1.83;;;1.40;;
60999;SDS011;46879;45.658;11.814;2023-04-09T09:17:52;1.30;;;1.20;;
60999;SDS011;46879;45.658;11.814;2023-04-09T09:22:57;2.83;;;1.52;;
60999;SDS011;46879;45.658;11.814;2023-04-09T09:28:11;1.98;;;1.40;;
60999;SDS011;46879;45.658;11.814;2023-04-09T09:33:12;2.03;;;1.35;;
60999;SDS011;46879;45.658;11.814;2023-04-09T09:38:12;1.70;;;1.40;;
60999;SDS011;46879;45.658;11.814;2023-04-09T09:43:14;2.42;;;1.42;;
60999;SDS011;46879;45.658;11.814;2023-04-09T09:48:15;2.63;;;1.20;;
60999;SDS011;46879;45.658;11.814;2023-04-09T09:53:16;1.40;;;1.30;;
60999;SDS011;46879;45.658;11.814;2023-04-09T09:58:22;1.33;;;1.23;;
60999;SDS011;46879;45.658;11.814;2023-04-09T10:03:30;1.65;;;1.42;;
60999;SDS011;46879;45.658;11.814;2023-04-09T10:08:33;2.33;;;1.50;;
60999;SDS011;46879;45.658;11.814;2023-04-09T10:18:50;1.52;;;1.30;;
60999;SDS011;46879;45.658;11.814;2023-04-09T10:23:51;2.92;;;1.65;;
60999;SDS011;46879;45.658;11.814;2023-04-09T10:29:02;1.85;;;1.25;;
60999;SDS011;46879;45.658;11.814;2023-04-09T10:34:14;1.42;;;1.33;;
60999;SDS011;46879;45.658;11.814;2023-04-09T10:39:20;1.70;;;1.48;;
60999;SDS011;46879;45.658;11.814;2023-04-09T10:44:26;3.33;;;1.30;;
60999;SDS011;46879;45.658;11.814;2023-04-09T10:49:31;1.30;;;1.20;;
60999;SDS011;46879;45.658;11.814;2023-04-09T10:59:39;2.17;;;1.17;;
60999;SDS011;46879;45.658;11.814;2023-04-09T11:10:18;1.30;;;1.20;;
60999;SDS011;46879;45.658;11.814;2023-04-09T11:15:20;1.40;;;1.30;;
60999;SDS011;46879;45.658;11.814;2023-04-09T11:20:21;1.73;;;1.63;;
60999;SDS011;46879;45.658;11.814;2023-04-09T11:25:25;1.33;;;1.23;;
60999;SDS011;46879;45.658;11.814;2023-04-09T11:30:30;1.17;;;1.13;;
60999;SDS011;46879;45.658;11.814;2023-04-09T11:35:33;1.10;;;1.10;;
60999;SDS011;46879;45.658;11.814;2023-04-09T11:40:35;1.55;;;1.38;;
60999;SDS011;46879;45.658;11.814;2023-04-09T11:45:42;1.83;;;1.40;;
60999;SDS011;46879;45.658;11.814;2023-04-09T11:50:43;1.55;;;1.30;;
60999;SDS011;46879;45.658;11.814;2023-04-09T11:55:45;1.17;;;1.08;;
60999;SDS011;46879;45.658;11.814;2023-04-09T12:00:53;1.25;;;1.15;;
60999;SDS011;46879;45.658;11.814;2023-04-09T12:05:55;3.42;;;1.27;;
60999;SDS011;46879;45.658;11.814;2023-04-09T12:10:55;1.48;;;1.20;;
60999;SDS011;46879;45.658;11.814;2023-04-09T12:15:56;1.20;;;1.10;;
60999;SDS011;46879;45.658;11.814;2023-04-09T12:20:59;1.50;;;1.40;;
60999;SDS011;46879;45.658;11.814;2023-04-09T12:26:01;1.25;;;1.15;;
60999;SDS011;46879;45.658;11.814;2023-04-09T12:31:02;1.23;;;1.13;;
60999;SDS011;46879;45.658;11.814;2023-04-09T12:36:02;1.38;;;1.25;;
60999;SDS011;46879;45.658;11.814;2023-04-09T12:41:03;1.50;;;1.10;;
60999;SDS011;46879;45.658;11.814;2023-04-09T12:46:04;1.40;;;1.25;;
60999;SDS011;46879;45.658;11.814;2023-04-09T12:51:05;1.30;;;1.20;;
60999;SDS011;46879;45.658;11.814;2023-04-09T12:56:06;1.15;;;1.02;;
60999;SDS011;46879;45.658;11.814;2023-04-09T13:01:07;1.17;;;1.10;;
60999;SDS011;46879;45.658;11.814;2023-04-09T13:06:07;1.10;;;1.00;;
60999;SDS011;46879;45.658;11.814;2023-04-09T13:11:08;1.13;;;1.10;;
60999;SDS011;46879;45.658;11.814;2023-04-09T13:16:08;1.20;;;1.20;;
60999;SDS011;46879;45.658;11.814;2023-04-09T13:21:09;1.10;;;1.10;;
60999;SDS011;46879;45.658;11.814;2023-04-09T13:26:10;1.30;;;1.20;;
60999;SDS011;46879;45.658;11.814;2023-04-09T13:31:10;1.17;;;1.17;;
60999;SDS011;46879;45.658;11.814;2023-04-09T13:36:11;1.42;;;1.25;;
60999;SDS011;46879;45.658;11.814;2023-04-09T13:41:11;1.13;;;1.08;;
60999;SDS011;46879;45.658;11.814;2023-04-09T13:46:12;1.20;;;1.10;;
60999;SDS011;46879;45.658;11.814;2023-04-09T13:51:13;2.45;;;1.25;;
60999;SDS011;46879;45.658;11.814;2023-04-09T13:56:13;1.23;;;1.15;;
60999;SDS011;46879;45.658;11.814;2023-04-09T14:01:14;1.17;;;1.08;;
60999;SDS011;46879;45.658;11.814;2023-04-09T14:06:15;1.13;;;1.10;;
60999;SDS011;46879;45.658;11.814;2023-04-09T14:11:16;1.10;;;1.02;;
60999;SDS011;46879;45.658;11.814;2023-04-09T14:16:16;1.48;;;1.10;;
60999;SDS011;46879;45.658;11.814;2023-04-09T14:21:18;1.30;;;1.20;;
60999;SDS011;46879;45.658;11.814;2023-04-09T14:26:18;1.15;;;1.10;;
60999;SDS011;46879;45.658;11.814;2023-04-09T14:31:19;1.17;;;1.08;;
60999;SDS011;46879;45.658;11.814;2023-04-09T14:36:20;1.00;;;1.00;;
60999;SDS011;46879;45.658;11.814;2023-04-09T14:41:20;2.75;;;1.50;;
60999;SDS011;46879;45.658;11.814;2023-04-09T14:46:21;1.20;;;1.10;;
60999;SDS011;46879;45.658;11.814;2023-04-09T14:51:22;1.15;;;1.10;;
60999;SDS011;46879;45.658;11.814;2023-04-09T14:56:22;1.05;;;1.05;;
60999;SDS011;46879;45.658;11.814;2023-04-09T15:01:26;1.45;;;1.15;;
60999;SDS011;46879;45.658;11.814;2023-04-09T15:06:27;1.10;;;1.10;;
60999;SDS011;46879;45.658;11.814;2023-04-09T15:11:28;0.98;;;0.98;;
60999;SDS011;46879;45.658;11.814;2023-04-09T15:16:29;1.20;;;1.10;;
60999;SDS011;46879;45.658;11.814;2023-04-09T15:21:32;0.98;;;0.98;;
60999;SDS011;46879;45.658;11.814;2023-04-09T15:26:33;1.45;;;1.10;;
60999;SDS011;46879;45.658;11.814;2023-04-09T15:31:33;1.00;;;1.00;;
60999;SDS011;46879;45.658;11.814;2023-04-09T15:36:34;1.20;;;0.93;;
60999;SDS011;46879;45.658;11.814;2023-04-09T15:41:34;1.17;;;1.13;;
60999;SDS011;46879;45.658;11.814;2023-04-09T15:46:38;1.30;;;1.20;;
60999;SDS011;46879;45.658;11.814;2023-04-09T15:51:39;1.30;;;1.20;;
60999;SDS011;46879;45.658;11.814;2023-04-09T15:56:40;1.10;;;1.08;;
60999;SDS011;46879;45.658;11.814;2023-04-09T16:01:41;1.00;;;1.00;;
60999;SDS011;46879;45.658;11.814;2023-04-09T16:06:41;1.30;;;1.20;;
60999;SDS011;46879;45.658;11.814;2023-04-09T16:11:42;1.20;;;1.10;;
60999;SDS011;46879;45.658;11.814;2023-04-09T16:16:42;0.98;;;0.98;;
60999;SDS011;46879;45.658;11.814;2023-04-09T16:21:48;1.10;;;1.10;;
60999;SDS011;46879;45.658;11.814;2023-04-09T16:26:48;1.13;;;1.10;;
60999;SDS011;46879;45.658;11.814;2023-04-09T16:31:49;1.00;;;1.00;;
60999;SDS011;46879;45.658;11.814;2023-04-09T16:36:51;0.90;;;0.90;;
60999;SDS011;46879;45.658;11.814;2023-04-09T16:41:51;1.42;;;1.20;;
60999;SDS011;46879;45.658;11.814;2023-04-09T16:46:52;1.10;;;1.00;;
60999;SDS011;46879;45.658;11.814;2023-04-09T16:51:53;1.10;;;1.10;;
60999;SDS011;46879;45.658;11.814;2023-04-09T16:56:54;1.20;;;1.20;;
60999;SDS011;46879;45.658;11.814;2023-04-09T17:01:56;1.02;;;1.02;;
60999;SDS011;46879;45.658;11.814;2023-04-09T17:06:56;1.30;;;1.20;;
60999;SDS011;46879;45.658;11.814;2023-04-09T17:11:57;1.13;;;1.08;;
60999;SDS011;46879;45.658;11.814;2023-04-09T17:16:58;1.02;;;1.02;;
60999;SDS011;46879;45.658;11.814;2023-04-09T17:21:59;0.95;;;0.95;;
60999;SDS011;46879;45.658;11.814;2023-04-09T17:26:59;1.10;;;1.10;;
60999;SDS011;46879;45.658;11.814;2023-04-09T17:32:00;1.20;;;1.10;;
60999;SDS011;46879;45.658;11.814;2023-04-09T17:37:00;0.90;;;0.90;;
60999;SDS011;46879;45.658;11.814;2023-04-09T17:42:01;1.20;;;1.10;;
60999;SDS011;46879;45.658;11.814;2023-04-09T17:47:03;0.90;;;0.90;;
60999;SDS011;46879;45.658;11.814;2023-04-09T17:52:06;1.00;;;1.00;;
60999;SDS011;46879;45.658;11.814;2023-04-09T17:57:06;1.85;;;1.00;;
60999;SDS011;46879;45.658;11.814;2023-04-09T18:02:07;0.90;;;0.90;;
60999;SDS011;46879;45.658;11.814;2023-04-09T18:07:07;1.10;;;1.00;;
60999;SDS011;46879;45.658;11.814;2023-04-09T18:12:08;1.10;;;1.00;;
60999;SDS011;46879;45.658;11.814;2023-04-09T18:17:09;1.10;;;1.00;;
60999;SDS011;46879;45.658;11.814;2023-04-09T18:22:09;1.20;;;1.15;;
60999;SDS011;46879;45.658;11.814;2023-04-09T18:27:10;1.15;;;1.10;;
60999;SDS011;46879;45.658;11.814;2023-04-09T18:32:10;5.35;;;1.05;;
60999;SDS011;46879;45.658;11.814;2023-04-09T18:37:11;1.33;;;1.27;;
60999;SDS011;46879;45.658;11.814;2023-04-09T18:42:12;1.13;;;1.10;;
60999;SDS011;46879;45.658;11.814;2023-04-09T18:47:13;1.45;;;1.00;;
60999;SDS011;46879;45.658;11.814;2023-04-09T18:52:14;1.05;;;1.00;;
60999;SDS011;46879;45.658;11.814;2023-04-09T18:57:14;1.75;;;1.60;;
60999;SDS011;46879;45.658;11.814;2023-04-09T19:02:15;3.67;;;3.00;;
60999;SDS011;46879;45.658;11.814;2023-04-09T19:07:17;20.90;;;5.50;;
60999;SDS011;46879;45.658;11.814;2023-04-09T19:12:18;34.70;;;6.82;;
60999;SDS011;46879;45.658;11.814;2023-04-09T19:17:19;10.75;;;6.05;;
60999;SDS011;46879;45.658;11.814;2023-04-09T19:22:19;12.98;;;5.50;;
60999;SDS011;46879;45.658;11.814;2023-04-09T19:27:21;12.27;;;5.20;;
60999;SDS011;46879;45.658;11.814;2023-04-09T19:32:21;11.02;;;5.22;;
60999;SDS011;46879;45.658;11.814;2023-04-09T19:37:22;8.63;;;5.70;;
60999;SDS011;46879;45.658;11.814;2023-04-09T19:42:26;12.27;;;4.82;;
60999;SDS011;46879;45.658;11.814;2023-04-09T19:47:27;6.97;;;4.47;;
60999;SDS011;46879;45.658;11.814;2023-04-09T19:52:28;9.18;;;4.93;;
60999;SDS011;46879;45.658;11.814;2023-04-09T19:57:28;8.85;;;4.35;;
60999;SDS011;46879;45.658;11.814;2023-04-09T20:02:30;7.45;;;4.82;;
60999;SDS011;46879;45.658;11.814;2023-04-09T20:07:31;10.75;;;4.35;;
60999;SDS011;46879;45.658;11.814;2023-04-09T20:12:32;12.07;;;4.50;;
60999;SDS011;46879;45.658;11.814;2023-04-09T20:17:33;5.72;;;3.95;;
60999;SDS011;46879;45.658;11.814;2023-04-09T20:22:34;7.38;;;4.47;;
60999;SDS011;46879;45.658;11.814;2023-04-09T20:27:35;5.63;;;3.78;;
60999;SDS011;46879;45.658;11.814;2023-04-09T20:32:36;6.03;;;3.60;;
60999;SDS011;46879;45.658;11.814;2023-04-09T20:37:37;9.23;;;3.63;;
60999;SDS011;46879;45.658;11.814;2023-04-09T20:42:38;5.00;;;4.03;;
60999;SDS011;46879;45.658;11.814;2023-04-09T20:47:40;4.88;;;3.53;;
60999;SDS011;46879;45.658;11.814;2023-04-09T20:52:41;5.97;;;3.90;;
60999;SDS011;46879;45.658;11.814;2023-04-09T20:57:42;4.35;;;3.15;;
60999;SDS011;46879;45.658;11.814;2023-04-09T21:02:42;3.70;;;3.08;;
60999;SDS011;46879;45.658;11.814;2023-04-09T21:07:43;6.05;;;3.50;;
60999;SDS011;46879;45.658;11.814;2023-04-09T21:12:44;3.25;;;2.80;;
60999;SDS011;46879;45.658;11.814;2023-04-09T21:17:44;4.30;;;3.00;;
60999;SDS011;46879;45.658;11.814;2023-04-09T21:22:45;3.60;;;3.00;;
60999;SDS011;46879;45.658;11.814;2023-04-09T21:27:46;4.53;;;2.70;;
60999;SDS011;46879;45.658;11.814;2023-04-09T21:32:47;3.35;;;2.70;;
60999;SDS011;46879;45.658;11.814;2023-04-09T21:37:47;3.22;;;2.65;;
60999;SDS011;46879;45.658;11.814;2023-04-09T21:42:48;3.30;;;2.85;;
60999;SDS011;46879;45.658;11.814;2023-04-09T21:47:49;2.63;;;2.40;;
60999;SDS011;46879;45.658;11.814;2023-04-09T21:52:49;4.50;;;3.00;;
60999;SDS011;46879;45.658;11.814;2023-04-09T21:57:50;4.82;;;2.42;;
60999;SDS011;46879;45.658;11.814;2023-04-09T22:02:54;3.10;;;2.20;;
60999;SDS011;46879;45.658;11.814;2023-04-09T22:08:00;2.65;;;2.05;;
60999;SDS011;46879;45.658;11.814;2023-04-09T22:13:00;3.88;;;2.42;;
60999;SDS011;46879;45.658;11.814;2023-04-09T22:18:01;3.33;;;2.60;;
60999;SDS011;46879;45.658;11.814;2023-04-09T22:23:01;2.17;;;1.98;;
60999;SDS011;46879;45.658;11.814;2023-04-09T22:28:02;4.10;;;2.13;;
60999;SDS011;46879;45.658;11.814;2023-04-09T22:33:04;5.60;;;2.13;;
60999;SDS011;46879;45.658;11.814;2023-04-09T22:38:05;2.30;;;2.10;;
60999;SDS011;46879;45.658;11.814;2023-04-09T22:43:06;5.55;;;2.33;;
60999;SDS011;46879;45.658;11.814;2023-04-09T22:48:06;2.28;;;2.00;;
60999;SDS011;46879;45.658;11.814;2023-04-09T22:53:07;1.83;;;1.65;;
60999;SDS011;46879;45.658;11.814;2023-04-09T22:58:07;2.20;;;2.00;;
60999;SDS011;46879;45.658;11.814;2023-04-09T23:03:08;3.33;;;2.03;;
60999;SDS011;46879;45.658;11.814;2023-04-09T23:08:09;2.97;;;1.55;;
60999;SDS011;46879;45.658;11.814;2023-04-09T23:13:10;1.63;;;1.52;;
60999;SDS011;46879;45.658;11.814;2023-04-09T23:18:12;2.72;;;2.10;;
60999;SDS011;46879;45.658;11.814;2023-04-09T23:23:13;3.95;;;2.08;;
60999;SDS011;46879;45.658;11.814;2023-04-09T23:28:14;2.40;;;1.70;;
60999;SDS011;46879;45.658;11.814;2023-04-09T23:33:14;2.25;;;1.90;;
60999;SDS011;46879;45.658;11.814;2023-04-09T23:38:15;2.08;;;1.60;;
60999;SDS011;46879;45.658;11.814;2023-04-09T23:43:16;2.60;;;1.98;;
60999;SDS011;46879;45.658;11.814;2023-04-09T23:48:17;1.60;;;1.50;;
60999;SDS011;46879;45.658;11.814;2023-04-09T23:53:18;2.13;;;1.92;;
60999;SDS011;46879;45.658;11.814;2023-04-09T23:58:18;2.88;;;1.55;;
